Terminal Aerodrome Forecast
Issued by NWS

Home | Current Version | Previous Version | Text Only | Print | Product List | Glossary On
Versions: 1 2 3 4 5 6 7 8 9 10 11 12 13
000
FTUS45 KFGZ 311100
TAFPRC
TAF
KPRC 311139Z 3112/0112 18007KT P6SM SCT250
     FM311800 17013G23KT P6SM FEW060 BKN140 BKN200
     FM010200 19006KT P6SM FEW060 SCT140 BKN200=

USA.gov is the U.S. government's official web portal to all federal, state and local government web resources and services.